Detall de PIREP

Printer-friendly versionPDF version

[2015/06/28 11:37:00]
Flight IATA:CT1004
Pilot Number:026
Company ICAO:CAT
Aircraft Type:DC85/A
PAX:132
Aircraft Registration:PAX
Departing Airport: LFMP
Destination Airport: LEZG
Alternate Airport:LEBL
Online: VATSIM
Route:BGR H110 REBUL G23 GRAUS
Flight Level:F230
No Slew and time accel
No pause
Crash detect
Detect pilot in Cockpit between each 30 and 45 minutes
11:37 Zero fuel Weight: 178015 Lbs, Fuel Weight: 24001 Lbs
11:37 VATSIM:LFMP 281100Z AUTO 12008KT 080V170 CAVOK 31/16 Q1018
11:37 VATSIM:LEZG 281100Z 32004KT 270V020 CAVOK 31/11 Q1019
11:37 FLAMA DEL CANIGÓ
11:41 Parking Brakes off
11:48 Take-off
11:48 Take off Weight: 201162 Lbs
11:48 Wind: 141º @ 010 Knots Heading: 328º
11:48 POS N42º 45´ 09´´ E002º 51´ 46´´
11:48 Gear Up: 164 Knots
11:48 Flaps:2 at 164 Knots
11:49 Flaps:1 at 183 Knots
11:50 Flaps:0 at 188 Knots
11:58 TOC
11:58 Fuel Weight: 19918 Lb
12:03 Wind:177º@034 Knots Heading: 260º Ground Speed: 450 Knots Altitude 23169 ft
12:16 TOD
12:16 Fuel Weight: 15997 Lb
12:18 Wind:190º@020 Knots Heading: 315º Ground Speed: 455 Knots Altitude 21397 ft
12:33 Wind:330º@004 Knots Heading: 216º Ground Speed: 244 Knots Altitude 4084 ft
12:38 Flaps:1 at 191 Knots
12:38 Gear Down: 193 Knots
12:38 Flaps:2 at 195 Knots
12:39 Flaps:3 at 163 Knots
12:40 Flaps:4 at 155 Knots
12:41 Flaps:5 at 146 Knots
12:41 TouchDown:Rate -382 ft/min Speed: 125 Knots
12:42 VATSIM:LEZG 281230Z 32006KT 280V360 CAVOK 34/11 Q1018
12:42 Land
12:42 Wind:000º@004 Knots
12:42 Heading: 302º
12:42 Flight Duration: 00:54
12:42 Landing Weight: 191514 Lbs
12:42 POS N41º 39´ 50´´ W001º 01´ 40´´
12:48 Parking brakes on
12:48 Block to Block Duration: 01:07
12:48 Final Fuel: 13040 Lbls
12:48 Spent Fuel: 10961 Lbls
12:48 Flight Length: 235 NM
12:48 TOD Land Length: 60 NM

Exportar CSV

Powered by Drupal - Modified by Danger4k